createdAt,value
2019-05-19T00:00:42.062Z,22.00
2019-05-19T00:03:14.715Z,18.80
2019-05-19T00:05:47.438Z,20.23
2019-05-19T00:08:19.572Z,20.90
2019-05-19T00:10:51.598Z,19.98
2019-05-19T00:13:23.755Z,20.68
2019-05-19T00:15:55.962Z,20.75
2019-05-19T00:18:28.343Z,19.90
2019-05-19T00:21:00.831Z,19.70
2019-05-19T00:23:33.268Z,19.98
2019-05-19T00:26:07.713Z,20.57
2019-05-19T00:28:39.727Z,19.05
2019-05-19T00:31:12.152Z,19.77
2019-05-19T00:33:44.854Z,20.80
2019-05-19T00:36:19.541Z,18.95
2019-05-19T00:38:51.424Z,18.62
2019-05-19T00:41:24.494Z,18.57
2019-05-19T00:43:59.503Z,18.55
2019-05-19T00:46:31.752Z,19.57
2019-05-19T00:49:04.681Z,18.52
2019-05-19T00:51:37.461Z,18.05
2019-05-19T00:54:09.546Z,18.48
2019-05-19T00:56:42.710Z,18.07
2019-05-19T00:59:15.312Z,17.37
2019-05-19T01:01:47.392Z,18.27
2019-05-19T01:04:28.853Z,18.73
2019-05-19T01:07:00.940Z,17.73
2019-05-19T01:09:52.581Z,17.00
2019-05-19T01:12:24.840Z,18.32
2019-05-19T01:14:56.815Z,17.67
2019-05-19T01:17:29.306Z,18.52
2019-05-19T01:20:01.456Z,18.15
2019-05-19T01:22:33.529Z,18.00
2019-05-19T01:25:07.154Z,16.80
2019-05-19T01:27:39.287Z,18.10
2019-05-19T01:30:14.757Z,15.98
2019-05-19T01:32:50.208Z,18.12
2019-05-19T01:35:22.529Z,16.17
2019-05-19T01:37:54.802Z,16.50
2019-05-19T01:40:27.430Z,15.65
2019-05-19T01:43:00.103Z,16.48
2019-05-19T01:45:32.491Z,17.70
2019-05-19T01:48:05.164Z,17.27
2019-05-19T01:50:38.169Z,16.25
2019-05-19T01:53:10.525Z,16.48
2019-05-19T01:55:43.092Z,16.48
2019-05-19T01:58:15.821Z,17.15
2019-05-19T02:00:48.094Z,16.75
2019-05-19T02:03:20.160Z,16.82
2019-05-19T02:05:52.436Z,16.50
2019-05-19T02:08:24.915Z,16.23
2019-05-19T02:10:57.356Z,16.05
2019-05-19T02:13:29.624Z,15.72
2019-05-19T02:16:01.667Z,16.60
2019-05-19T02:18:33.941Z,15.30
2019-05-19T02:21:06.532Z,14.68
2019-05-19T02:23:38.497Z,15.25
2019-05-19T02:26:10.736Z,15.55
2019-05-19T02:28:43.256Z,16.77
2019-05-19T02:31:15.265Z,16.73
2019-05-19T02:33:47.675Z,16.80
2019-05-19T02:36:23.863Z,15.95
2019-05-19T02:38:56.667Z,15.68
2019-05-19T02:41:31.855Z,15.25
2019-05-19T02:44:05.869Z,15.03
2019-05-19T02:46:39.552Z,14.03
2019-05-19T02:49:13.814Z,13.55
2019-05-19T02:51:50.497Z,15.53
2019-05-19T02:54:23.738Z,14.38
2019-05-19T02:56:56.215Z,15.70
2019-05-19T02:59:29.342Z,15.08
2019-05-19T03:02:04.092Z,15.63
2019-05-19T03:04:36.412Z,13.80
2019-05-19T03:07:08.570Z,14.45
2019-05-19T03:09:40.939Z,15.23
2019-05-19T03:12:13.076Z,13.88
2019-05-19T03:14:46.159Z,14.38
2019-05-19T03:17:18.659Z,14.00
2019-05-19T03:19:50.886Z,14.50
2019-05-19T03:22:23.211Z,13.95
2019-05-19T03:24:55.123Z,13.72
2019-05-19T03:27:27.656Z,13.93
2019-05-19T03:30:01.451Z,12.85
2019-05-19T03:32:34.851Z,14.47
2019-05-19T03:35:07.593Z,13.80
2019-05-19T03:37:39.568Z,14.00
2019-05-19T03:40:13.800Z,13.50
2019-05-19T03:42:45.872Z,13.90
2019-05-19T03:45:18.195Z,14.30
2019-05-19T03:47:51.707Z,14.45
2019-05-19T03:50:23.896Z,13.78
2019-05-19T03:52:55.931Z,13.55
2019-05-19T03:55:31.265Z,13.93
2019-05-19T03:58:03.421Z,13.05
2019-05-19T04:00:35.900Z,13.35
2019-05-19T04:03:08.236Z,13.03
2019-05-19T04:05:40.394Z,13.30
2019-05-19T04:08:12.636Z,11.90
2019-05-19T04:10:45.096Z,11.05
2019-05-19T04:13:26.129Z,12.53
2019-05-19T04:15:58.852Z,12.20
2019-05-19T04:18:31.276Z,13.00
2019-05-19T04:21:06.433Z,12.33
2019-05-19T04:23:39.122Z,12.20
2019-05-19T04:26:11.248Z,12.13
2019-05-19T04:28:43.437Z,11.85
2019-05-19T04:31:15.657Z,12.25
2019-05-19T04:33:47.390Z,11.70
2019-05-19T04:36:19.339Z,11.35
2019-05-19T04:38:51.752Z,12.15
2019-05-19T04:41:23.594Z,11.12
2019-05-19T04:43:55.538Z,10.65
2019-05-19T04:46:27.856Z,11.12
2019-05-19T04:48:59.646Z,11.88
2019-05-19T04:51:31.992Z,10.08
2019-05-19T04:54:04.512Z,10.30
2019-05-19T04:56:36.552Z,10.45
2019-05-19T04:59:08.663Z,10.00
2019-05-19T05:01:41.758Z,10.90
2019-05-19T05:04:14.018Z,10.23
2019-05-19T05:06:46.591Z,10.53
2019-05-19T05:09:19.079Z,10.38
2019-05-19T05:11:51.785Z,11.18
2019-05-19T05:14:24.031Z,10.60
2019-05-19T05:16:56.040Z,10.70
2019-05-19T05:19:28.621Z,8.85
2019-05-19T05:22:01.164Z,10.60
2019-05-19T05:24:33.517Z,9.95
2019-05-19T05:27:06.508Z,11.00
2019-05-19T05:29:38.665Z,9.35
2019-05-19T05:32:11.248Z,9.60
2019-05-19T05:34:43.380Z,10.28
2019-05-19T05:37:15.443Z,9.95
2019-05-19T05:39:48.181Z,9.58
2019-05-19T05:42:20.601Z,9.48
2019-05-19T05:44:53.421Z,9.85
2019-05-19T05:47:26.636Z,8.90
2019-05-19T05:50:02.299Z,8.93
2019-05-19T05:52:38.431Z,9.18
2019-05-19T05:55:10.356Z,9.70
2019-05-19T05:57:48.186Z,9.60
2019-05-19T06:00:20.897Z,7.65
2019-05-19T06:02:53.298Z,7.92
2019-05-19T06:05:25.849Z,8.95
2019-05-19T06:08:00.964Z,9.40
2019-05-19T06:10:36.995Z,9.55
2019-05-19T06:13:09.710Z,9.30
2019-05-19T06:15:41.626Z,8.50
2019-05-19T06:18:18.369Z,8.30
2019-05-19T06:20:49.712Z,8.58
2019-05-19T06:23:19.846Z,8.98
2019-05-19T06:25:50.265Z,8.85
2019-05-19T06:28:20.417Z,8.85
2019-05-19T06:30:50.744Z,9.53
2019-05-19T06:33:21.557Z,7.87
2019-05-19T06:35:51.976Z,6.92
2019-05-19T06:38:22.416Z,6.85
2019-05-19T06:40:52.964Z,8.25
2019-05-19T06:43:23.172Z,8.15
2019-05-19T06:45:53.278Z,7.70
2019-05-19T06:48:23.925Z,8.75
2019-05-19T06:50:54.025Z,8.50
2019-05-19T06:53:24.163Z,8.50
2019-05-19T06:55:54.900Z,8.18
2019-05-19T06:58:24.932Z,8.33
2019-05-19T07:00:55.040Z,7.62
2019-05-19T07:03:25.581Z,9.45
2019-05-19T07:05:57.939Z,8.63
2019-05-19T07:08:28.279Z,9.83
2019-05-19T07:10:58.994Z,8.53
2019-05-19T07:16:17.158Z,7.83
2019-05-19T07:18:47.393Z,8.40
2019-05-19T07:21:17.716Z,8.68
2019-05-19T07:23:50.398Z,7.95
2019-05-19T07:26:20.833Z,8.93
2019-05-19T07:28:51.053Z,8.83
2019-05-19T07:31:21.702Z,9.38
2019-05-19T07:33:52.029Z,8.65
2019-05-19T07:36:23.330Z,9.35
2019-05-19T07:38:53.886Z,9.08
2019-05-19T07:41:24.119Z,8.88
2019-05-19T07:43:54.207Z,9.58
2019-05-19T07:46:25.066Z,8.78
2019-05-19T07:48:55.302Z,8.50
2019-05-19T07:51:25.515Z,8.50
2019-05-19T07:53:55.737Z,8.53
2019-05-19T07:56:26.074Z,8.60
2019-05-19T07:58:56.510Z,7.45
2019-05-19T08:01:27.033Z,7.37
2019-05-19T08:03:57.566Z,7.15
2019-05-19T08:06:27.801Z,8.40
2019-05-19T08:08:58.533Z,8.48
2019-05-19T08:11:28.947Z,9.00
2019-05-19T08:13:59.385Z,8.18
2019-05-19T08:16:30.114Z,9.18
2019-05-19T08:19:00.465Z,9.55
2019-05-19T08:21:39.881Z,8.60
2019-05-19T08:24:10.314Z,9.48
2019-05-19T08:26:41.463Z,8.50
2019-05-19T08:29:12.180Z,7.85
2019-05-19T08:31:42.414Z,8.88
2019-05-19T08:34:12.869Z,8.98
2019-05-19T08:36:43.477Z,8.08
2019-05-19T08:39:13.586Z,8.80
2019-05-19T08:41:43.811Z,8.83
2019-05-19T08:44:19.896Z,9.60
2019-05-19T08:46:50.228Z,8.60
2019-05-19T08:49:20.631Z,8.98
2019-05-19T08:51:51.176Z,9.08
2019-05-19T08:54:21.387Z,9.13
2019-05-19T08:56:51.707Z,9.50
2019-05-19T08:59:22.150Z,9.25
2019-05-19T09:01:52.257Z,11.03
2019-05-19T09:04:22.603Z,9.70
2019-05-19T09:06:53.330Z,8.40
2019-05-19T09:09:23.541Z,8.98
2019-05-19T09:11:54.049Z,9.30
2019-05-19T09:16:55.972Z,8.25
2019-05-19T09:19:26.320Z,8.58
2019-05-19T09:21:56.398Z,8.93
2019-05-19T09:24:30.437Z,8.65
2019-05-19T09:26:58.383Z,8.45
2019-05-19T09:29:28.873Z,7.80
2019-05-19T09:31:59.146Z,8.18
2019-05-19T09:34:29.368Z,8.15
2019-05-19T09:36:59.708Z,8.00
2019-05-19T09:39:30.121Z,8.98
2019-05-19T09:42:00.465Z,8.25
2019-05-19T09:44:30.864Z,9.33
2019-05-19T09:47:01.621Z,7.53
2019-05-19T09:49:31.951Z,8.03
2019-05-19T09:52:02.211Z,9.05
2019-05-19T09:54:44.236Z,9.95
2019-05-19T09:57:04.874Z,9.55
2019-05-19T09:59:35.099Z,8.88
2019-05-19T10:02:05.833Z,8.48
2019-05-19T10:04:55.403Z,9.13
2019-05-19T10:07:26.143Z,8.93
2019-05-19T10:09:56.579Z,9.78
2019-05-19T10:12:27.008Z,8.45
2019-05-19T10:14:57.543Z,9.10
2019-05-19T10:17:27.747Z,8.40
2019-05-19T10:19:57.970Z,8.73
2019-05-19T10:22:28.617Z,9.60
2019-05-19T10:25:19.884Z,8.50
2019-05-19T10:27:30.817Z,9.23
2019-05-19T10:30:02.051Z,8.70
2019-05-19T10:32:32.300Z,8.55
2019-05-19T10:35:02.727Z,9.90
2019-05-19T10:37:36.238Z,8.95
2019-05-19T10:40:07.012Z,9.18
2019-05-19T10:42:37.158Z,10.55
2019-05-19T10:45:07.780Z,9.78
2019-05-19T10:47:37.715Z,10.60
2019-05-19T10:50:08.030Z,10.70
2019-05-19T10:52:38.371Z,9.23
2019-05-19T10:55:08.491Z,8.63
2019-05-19T10:57:38.595Z,9.95
2019-05-19T11:00:11.903Z,7.80
2019-05-19T11:02:42.338Z,9.90
2019-05-19T11:05:12.423Z,8.80
2019-05-19T11:07:43.196Z,9.50
2019-05-19T11:10:14.947Z,8.55
2019-05-19T11:12:47.024Z,9.65
2019-05-19T11:15:19.402Z,8.75
2019-05-19T11:17:49.613Z,9.40
2019-05-19T11:20:19.927Z,9.68
2019-05-19T11:22:50.666Z,8.75
2019-05-19T11:25:33.086Z,9.30
2019-05-19T11:27:55.754Z,10.28
2019-05-19T11:30:26.045Z,9.08
2019-05-19T11:32:56.696Z,8.65
2019-05-19T11:35:26.819Z,9.55
2019-05-19T11:37:57.346Z,9.93
2019-05-19T11:40:29.623Z,9.35
2019-05-19T11:43:01.808Z,8.78
2019-05-19T11:45:34.149Z,9.70
2019-05-19T11:48:06.298Z,9.60
2019-05-19T11:50:41.887Z,9.73
2019-05-19T11:53:12.269Z,10.25
2019-05-19T11:55:45.210Z,9.93
2019-05-19T11:58:17.354Z,9.73
2019-05-19T12:00:49.599Z,10.00
2019-05-19T12:03:21.795Z,10.40
2019-05-19T12:05:53.945Z,11.22
2019-05-19T12:08:25.917Z,10.82
2019-05-19T12:11:00.471Z,9.85
2019-05-19T12:13:34.973Z,10.48
2019-05-19T12:16:06.650Z,10.20
2019-05-19T12:18:42.307Z,11.12
2019-05-19T12:21:14.229Z,10.80
2019-05-19T12:23:46.965Z,11.38
2019-05-19T12:26:23.048Z,11.05
2019-05-19T12:28:52.603Z,10.43
2019-05-19T12:31:24.881Z,9.95
2019-05-19T12:33:57.179Z,11.12
2019-05-19T12:36:30.580Z,10.35
2019-05-19T12:39:02.759Z,10.95
2019-05-19T12:41:36.666Z,10.63
2019-05-19T12:44:09.350Z,10.20
2019-05-19T12:46:41.014Z,10.23
2019-05-19T12:49:32.338Z,9.70
2019-05-19T12:52:04.496Z,10.75
2019-05-19T12:54:37.180Z,9.85
2019-05-19T12:57:09.354Z,10.28
2019-05-19T12:59:41.792Z,10.00
2019-05-19T13:02:13.860Z,9.98
2019-05-19T13:05:01.128Z,10.60
2019-05-19T13:07:19.616Z,9.85
2019-05-19T13:09:51.699Z,13.85
2019-05-19T13:12:23.702Z,9.68
2019-05-19T13:14:55.958Z,10.08
2019-05-19T13:17:28.296Z,10.80
2019-05-19T13:20:01.942Z,9.90
2019-05-19T13:22:34.297Z,9.90
2019-05-19T13:25:07.367Z,10.80
2019-05-19T13:27:41.066Z,10.25
2019-05-19T13:30:14.163Z,10.82
2019-05-19T13:32:45.993Z,9.95
2019-05-19T13:35:18.306Z,9.70
2019-05-19T13:37:50.782Z,10.00
2019-05-19T13:40:23.223Z,10.58
2019-05-19T13:42:56.242Z,9.65
2019-05-19T13:45:28.594Z,10.53
2019-05-19T13:48:03.833Z,10.05
2019-05-19T13:50:39.100Z,10.30
2019-05-19T13:53:18.432Z,10.63
2019-05-19T13:55:51.117Z,10.55
2019-05-19T13:58:23.801Z,10.63
2019-05-19T14:00:56.148Z,10.85
2019-05-19T14:03:28.478Z,11.08
2019-05-19T14:06:19.841Z,11.40
2019-05-19T14:08:52.461Z,11.53
2019-05-19T14:11:24.609Z,10.75
2019-05-19T14:13:56.887Z,11.55
2019-05-19T14:16:28.857Z,10.95
2019-05-19T14:19:00.954Z,11.45
2019-05-19T14:21:33.661Z,9.98
2019-05-19T14:24:05.639Z,11.35
2019-05-19T14:26:37.940Z,10.53
2019-05-19T14:29:10.624Z,11.33
2019-05-19T14:31:43.292Z,11.22
2019-05-19T14:34:15.256Z,10.45
2019-05-19T14:36:50.378Z,11.63
2019-05-19T14:39:22.479Z,12.15
2019-05-19T14:41:55.858Z,11.55
2019-05-19T14:44:27.989Z,11.65
2019-05-19T14:46:59.923Z,12.40
2019-05-19T14:49:31.928Z,12.30
2019-05-19T14:52:04.145Z,12.90
2019-05-19T14:54:37.260Z,13.68
2019-05-19T14:57:09.218Z,13.32
2019-05-19T14:59:41.190Z,13.93
2019-05-19T15:02:13.726Z,13.55
2019-05-19T15:04:46.112Z,13.20
2019-05-19T15:07:18.576Z,13.72
2019-05-19T15:09:57.940Z,13.35
2019-05-19T15:12:30.159Z,13.40
2019-05-19T15:15:02.458Z,13.25
2019-05-19T15:17:35.058Z,13.05
2019-05-19T15:20:09.825Z,13.68
2019-05-19T15:22:41.802Z,14.15
2019-05-19T15:25:15.005Z,12.78
2019-05-19T15:27:59.243Z,12.90
2019-05-19T15:30:21.724Z,13.75
2019-05-19T15:32:54.139Z,13.95
2019-05-19T15:35:46.231Z,14.93
2019-05-19T15:38:19.550Z,14.18
2019-05-19T15:40:51.764Z,13.05
2019-05-19T15:43:24.224Z,13.50
2019-05-19T15:45:56.164Z,13.22
2019-05-19T15:48:28.766Z,14.03
2019-05-19T15:51:01.123Z,13.48
2019-05-19T15:53:33.542Z,14.65
2019-05-19T15:56:05.979Z,13.93
2019-05-19T15:58:38.639Z,12.88
2019-05-19T16:01:11.033Z,14.65
2019-05-19T16:04:03.700Z,13.22
2019-05-19T16:06:55.519Z,12.47
2019-05-19T16:09:27.882Z,13.65
2019-05-19T16:12:13.382Z,13.55
2019-05-19T16:14:45.617Z,13.72
2019-05-19T16:17:17.745Z,14.25
2019-05-19T16:19:49.797Z,12.82
2019-05-19T16:22:22.475Z,13.70
2019-05-19T16:24:54.549Z,14.75
2019-05-19T16:27:46.793Z,14.10
2019-05-19T16:30:19.224Z,14.90
2019-05-19T16:32:51.446Z,14.18
2019-05-19T16:35:23.490Z,14.55
2019-05-19T16:37:55.630Z,14.30
2019-05-19T16:40:28.456Z,13.68
2019-05-19T16:43:02.393Z,14.28
2019-05-19T16:45:34.627Z,14.78
2019-05-19T16:48:06.522Z,13.53
2019-05-19T16:50:38.808Z,15.23
2019-05-19T16:53:11.052Z,14.83
2019-05-19T16:55:43.838Z,14.65
2019-05-19T16:58:21.206Z,15.10
2019-05-19T17:00:49.975Z,14.10
2019-05-19T17:03:22.353Z,14.75
2019-05-19T17:05:54.817Z,14.10
2019-05-19T17:08:27.350Z,14.40
2019-05-19T17:10:59.469Z,15.35
2019-05-19T17:13:31.482Z,14.33
2019-05-19T17:16:03.887Z,13.85
2019-05-19T17:18:35.956Z,14.35
2019-05-19T17:21:09.822Z,14.03
2019-05-19T17:23:41.999Z,13.60
2019-05-19T17:26:13.945Z,13.75
2019-05-19T17:28:59.780Z,13.88
2019-05-19T17:31:20.386Z,13.80
2019-05-19T17:33:57.583Z,13.13
2019-05-19T17:36:29.742Z,13.78
2019-05-19T17:39:01.785Z,14.13
2019-05-19T17:41:35.518Z,12.90
2019-05-19T17:44:07.786Z,14.50
2019-05-19T17:46:40.412Z,12.70
2019-05-19T17:49:12.132Z,14.83
2019-05-19T17:51:44.294Z,13.58
2019-05-19T17:54:19.962Z,13.53
2019-05-19T17:57:09.419Z,13.20
2019-05-19T17:59:45.903Z,13.85
2019-05-19T18:02:18.156Z,13.25
2019-05-19T18:04:50.522Z,13.98
2019-05-19T18:07:22.713Z,12.53
2019-05-19T18:09:55.248Z,13.05
2019-05-19T18:12:27.508Z,13.70
2019-05-19T18:14:59.381Z,14.23
2019-05-19T18:17:32.007Z,13.28
2019-05-19T18:20:04.373Z,13.08
2019-05-19T18:22:36.613Z,14.38
2019-05-19T18:25:09.210Z,14.55
2019-05-19T18:27:41.418Z,14.13
2019-05-19T18:30:14.814Z,14.63
2019-05-19T18:32:46.848Z,13.95
2019-05-19T18:35:19.374Z,12.65
2019-05-19T18:37:51.472Z,14.25
2019-05-19T18:40:23.625Z,13.78
2019-05-19T18:42:55.978Z,14.80
2019-05-19T18:45:28.147Z,13.68
2019-05-19T18:48:00.189Z,13.48
2019-05-19T18:50:32.763Z,13.25
2019-05-19T18:53:04.841Z,14.50
2019-05-19T18:55:36.831Z,14.13
2019-05-19T18:58:09.108Z,14.55
2019-05-19T19:00:42.974Z,14.38
2019-05-19T19:03:15.790Z,13.70
2019-05-19T19:05:48.029Z,12.95
2019-05-19T19:08:20.349Z,13.38
2019-05-19T19:10:52.508Z,14.10
2019-05-19T19:13:24.696Z,14.00
2019-05-19T19:15:56.906Z,13.93
2019-05-19T19:18:29.700Z,13.93
2019-05-19T19:21:01.788Z,14.40
2019-05-19T19:23:34.049Z,13.43
2019-05-19T19:26:06.952Z,13.93
2019-05-19T19:28:39.205Z,13.03
2019-05-19T19:31:11.433Z,13.58
2019-05-19T19:33:43.603Z,14.05
2019-05-19T19:36:15.591Z,13.72
2019-05-19T19:38:47.885Z,13.85
2019-05-19T19:41:19.866Z,12.78
2019-05-19T19:43:51.715Z,13.00
2019-05-19T19:46:24.497Z,13.38
2019-05-19T19:48:56.573Z,14.65
2019-05-19T19:51:28.661Z,13.65
2019-05-19T19:54:01.023Z,13.60
2019-05-19T19:56:33.479Z,13.13
2019-05-19T19:59:05.622Z,12.40
2019-05-19T20:01:38.857Z,13.03
2019-05-19T20:04:11.525Z,13.72
2019-05-19T20:06:43.632Z,12.78
2019-05-19T20:09:15.764Z,14.05
2019-05-19T20:11:48.024Z,13.88
2019-05-19T20:14:20.496Z,13.75
2019-05-19T20:16:52.612Z,13.93
2019-05-19T20:19:24.890Z,13.15
2019-05-19T20:21:57.066Z,12.63
2019-05-19T20:24:29.479Z,14.75
2019-05-19T20:27:02.089Z,13.30
2019-05-19T20:29:34.360Z,12.95
2019-05-19T20:32:06.355Z,12.73
2019-05-19T20:34:38.375Z,12.98
2019-05-19T20:37:10.673Z,13.35
2019-05-19T20:39:42.952Z,14.00
2019-05-19T20:42:15.041Z,13.03
2019-05-19T20:44:47.190Z,13.10
2019-05-19T20:47:19.435Z,12.43
2019-05-19T20:49:51.700Z,12.43
2019-05-19T20:52:24.024Z,12.85
2019-05-19T20:54:56.271Z,13.15
2019-05-19T20:57:28.311Z,12.85
2019-05-19T21:00:00.459Z,12.78
2019-05-19T21:02:33.723Z,11.95
2019-05-19T21:05:06.389Z,12.58
2019-05-19T21:07:38.465Z,12.20
2019-05-19T21:10:30.253Z,12.30
2019-05-19T21:13:02.410Z,12.13
2019-05-19T21:15:34.633Z,12.85
2019-05-19T21:18:06.763Z,13.38
2019-05-19T21:20:38.946Z,13.08
2019-05-19T21:23:11.214Z,13.35
2019-05-19T21:25:43.727Z,12.75
2019-05-19T21:28:15.709Z,12.70
2019-05-19T21:30:47.969Z,12.85
2019-05-19T21:33:20.254Z,13.20
2019-05-19T21:35:52.869Z,12.37
2019-05-19T21:38:24.836Z,14.38
2019-05-19T21:40:57.105Z,13.13
2019-05-19T21:43:29.233Z,14.95
2019-05-19T21:46:01.751Z,13.85
2019-05-19T21:48:35.300Z,13.80
2019-05-19T21:51:08.323Z,14.18
2019-05-19T21:53:40.708Z,13.70
2019-05-19T21:56:12.886Z,13.53
2019-05-19T21:58:45.466Z,13.72
2019-05-19T22:01:23.394Z,13.95
2019-05-19T22:03:53.225Z,14.63
2019-05-19T22:06:26.886Z,14.20
2019-05-19T22:08:59.015Z,13.18
2019-05-19T22:11:32.532Z,13.72
2019-05-19T22:14:04.649Z,13.78
2019-05-19T22:16:36.798Z,14.05
2019-05-19T22:19:09.642Z,13.13
2019-05-19T22:21:41.622Z,14.05
2019-05-19T22:24:13.651Z,13.75
2019-05-19T22:26:46.914Z,14.07
2019-05-19T22:29:18.790Z,14.40
2019-05-19T22:31:50.695Z,14.23
2019-05-19T22:34:22.960Z,14.30
2019-05-19T22:36:55.113Z,13.30
2019-05-19T22:39:27.327Z,13.88
2019-05-19T22:41:59.953Z,14.50
2019-05-19T22:44:32.380Z,14.55
2019-05-19T22:47:04.548Z,13.62
2019-05-19T22:49:36.835Z,13.98
2019-05-19T22:52:09.036Z,14.87
2019-05-19T22:54:41.240Z,15.08
2019-05-19T22:57:13.740Z,13.65
2019-05-19T22:59:45.697Z,13.83
2019-05-19T23:02:17.681Z,14.47
2019-05-19T23:04:50.684Z,15.08
2019-05-19T23:07:41.814Z,16.62
2019-05-19T23:10:14.850Z,15.05
2019-05-19T23:12:46.674Z,15.15
2019-05-19T23:15:19.810Z,15.25
2019-05-19T23:17:52.087Z,14.93
2019-05-19T23:20:24.626Z,14.60
2019-05-19T23:22:56.797Z,14.80
2019-05-19T23:25:29.321Z,15.10
2019-05-19T23:28:01.824Z,15.18
2019-05-19T23:30:34.018Z,16.35
2019-05-19T23:33:07.065Z,14.90
2019-05-19T23:35:39.106Z,15.05
2019-05-19T23:38:11.074Z,14.83
2019-05-19T23:40:43.154Z,18.57
2019-05-19T23:43:15.424Z,15.10
2019-05-19T23:45:47.594Z,16.00
2019-05-19T23:48:19.934Z,14.95
2019-05-19T23:50:52.595Z,15.32
2019-05-19T23:53:24.798Z,15.75
2019-05-19T23:55:56.841Z,14.58
2019-05-19T23:58:28.993Z,13.80
